Fonvind — JWYN — position and weather

sailwx.info

Track history (hours):
 
Tides and Currents Weather Stations Pressure Air Temp Water Temp Dewpoint Dewpoint Depression Visibility Wind Speed Wind Dir Waves Ship Positions

Fonvind

Last reported at 2016-Jul-23 13:33 UTC. Time now 2016-Jul-30 20:46 UTC.
Position N 66°14' E 012°19'.

Length 34 m; draft 3.5 m.

Type: Cargo ship. MMSI: 257322400.

Date/timePositionNaut miles runAvg speedWind from/ knotsBaromVisibWave heightAir tempDewpointWater temp
2016-Jul-23 13:33N 66°14' E 012°19'0 0.0
2016-Jul-23 12:33N 66°14' E 012°19'0 0.0
2016-Jul-23 11:33N 66°14' E 012°19'0 0.0
2016-Jul-23 10:33N 66°14' E 012°19'0 0.0
2016-Jul-23 09:33N 66°14' E 012°19'0 0.0
2016-Jul-23 08:33N 66°14' E 012°19'0 0.0
2016-Jul-23 07:33N 66°14' E 012°19'0 0.0
2016-Jul-23 06:33N 66°14' E 012°19'0 0.0
2016-Jul-23 04:29N 66°14' E 012°19'0 0.0
2016-Jul-23 03:33N 66°14' E 012°19'0 0.0
2016-Jul-23 02:33N 66°14' E 012°19'0 0.0
2016-Jul-23 01:31N 66°14' E 012°19'0 0.0
2016-Jul-23 00:33N 66°14' E 012°19'0 0.0
2016-Jul-22 23:33N 66°14' E 012°19'0 0.0
2016-Jul-22 22:33N 66°14' E 012°19'0 0.0
2016-Jul-22 21:33N 66°14' E 012°19'0 0.0
2016-Jul-22 20:32N 66°14' E 012°19'0 0.0
2016-Jul-22 19:33N 66°14' E 012°19'0 0.0
2016-Jul-22 18:33N 66°14' E 012°19'0 0.0
2016-Jul-22 17:32N 66°14' E 012°19'5 0.2
2016-Jul-21 10:31N 66°09' E 012°17'5 5.1
2016-Jul-21 09:33N 66°14' E 012°19'0 0.0
2016-Jul-21 08:33N 66°14' E 012°19'0 0.0
2016-Jul-21 07:34N 66°14' E 012°19'0 0.0
2016-Jul-20 14:10N 66°14' E 012°19'0 0.0
2016-Jul-20 13:28N 66°14' E 012°19'0 0.1
2016-Jul-20 12:26N 66°14' E 012°19'0 0.0
2016-Jul-20 11:05N 66°14' E 012°19'0 0.0
2016-Jul-20 10:29N 66°14' E 012°19'0 0.0
2016-Jul-20 07:04N 66°14' E 012°19'  
2016-Jul-15 11:07N 65°51' E 012°17'0 0.0
2016-Jul-15 08:33N 65°51' E 012°17'0 0.0
2016-Jul-14 13:26N 65°51' E 012°17'0 0.0
2016-Jul-14 12:33N 65°51' E 012°17'0 0.0
2016-Jul-14 08:25N 65°51' E 012°17'10 1.0
2016-Jul-13 22:33N 66°01' E 012°23'0 0.0
2016-Jul-13 21:34N 66°01' E 012°23'0 0.0
2016-Jul-13 20:05N 66°01' E 012°23'0 0.0
2016-Jul-13 19:34N 66°01' E 012°23'0 0.0
2016-Jul-13 18:33N 66°01' E 012°23'0 0.0
2016-Jul-13 17:33N 66°01' E 012°23'  
Track history (hours):
 
Tides and Currents Weather Stations Pressure Air Temp Water Temp Dewpoint Dewpoint Depression Visibility Wind Speed Wind Dir Waves Ship Positions

Fonvind

Last reported at 2016-Jul-23 13:33 UTC. Time now 2016-Jul-30 20:46 UTC.
Position N 66°14' E 012°19'.

Length 34 m; draft 3.5 m.

Type: Cargo ship. MMSI: 257322400.

Date/timePositionNaut miles runAvg speedWind from/ knotsBaromVisibWave heightAir tempDewpointWater temp
2016-Jul-23 13:33N 66°14' E 012°19'0 0.0
2016-Jul-23 12:33N 66°14' E 012°19'0 0.0
2016-Jul-23 11:33N 66°14' E 012°19'0 0.0
2016-Jul-23 10:33N 66°14' E 012°19'0 0.0
2016-Jul-23 09:33N 66°14' E 012°19'0 0.0
2016-Jul-23 08:33N 66°14' E 012°19'0 0.0
2016-Jul-23 07:33N 66°14' E 012°19'0 0.0
2016-Jul-23 06:33N 66°14' E 012°19'0 0.0
2016-Jul-23 04:29N 66°14' E 012°19'0 0.0
2016-Jul-23 03:33N 66°14' E 012°19'0 0.0
2016-Jul-23 02:33N 66°14' E 012°19'0 0.0
2016-Jul-23 01:31N 66°14' E 012°19'0 0.0
2016-Jul-23 00:33N 66°14' E 012°19'0 0.0
2016-Jul-22 23:33N 66°14' E 012°19'0 0.0
2016-Jul-22 22:33N 66°14' E 012°19'0 0.0
2016-Jul-22 21:33N 66°14' E 012°19'0 0.0
2016-Jul-22 20:32N 66°14' E 012°19'0 0.0
2016-Jul-22 19:33N 66°14' E 012°19'0 0.0
2016-Jul-22 18:33N 66°14' E 012°19'0 0.0
2016-Jul-22 17:32N 66°14' E 012°19'5 0.2
2016-Jul-21 10:31N 66°09' E 012°17'5 5.1
2016-Jul-21 09:33N 66°14' E 012°19'0 0.0
2016-Jul-21 08:33N 66°14' E 012°19'0 0.0
2016-Jul-21 07:34N 66°14' E 012°19'0 0.0
2016-Jul-20 14:10N 66°14' E 012°19'0 0.0
2016-Jul-20 13:28N 66°14' E 012°19'0 0.1
2016-Jul-20 12:26N 66°14' E 012°19'0 0.0
2016-Jul-20 11:05N 66°14' E 012°19'0 0.0
2016-Jul-20 10:29N 66°14' E 012°19'0 0.0
2016-Jul-20 07:04N 66°14' E 012°19'  
2016-Jul-15 11:07N 65°51' E 012°17'0 0.0
2016-Jul-15 08:33N 65°51' E 012°17'0 0.0
2016-Jul-14 13:26N 65°51' E 012°17'0 0.0
2016-Jul-14 12:33N 65°51' E 012°17'0 0.0
2016-Jul-14 08:25N 65°51' E 012°17'10 1.0
2016-Jul-13 22:33N 66°01' E 012°23'0 0.0
2016-Jul-13 21:34N 66°01' E 012°23'0 0.0
2016-Jul-13 20:05N 66°01' E 012°23'0 0.0
2016-Jul-13 19:34N 66°01' E 012°23'0 0.0
2016-Jul-13 18:33N 66°01' E 012°23'0 0.0
2016-Jul-13 17:33N 66°01' E 012°23'  

Dump ship's entire track history